sensor_id;sensor_type;location;lat;lon;timestamp;P1;durP1;ratioP1;P2;durP2;ratioP2
32501;SDS011;18952;52.516;13.460;2022-12-18T00:01:15;94.68;;;48.88;;
32501;SDS011;18952;52.516;13.460;2022-12-18T00:03:44;94.20;;;47.88;;
32501;SDS011;18952;52.516;13.460;2022-12-18T00:06:12;99.35;;;47.50;;
32501;SDS011;18952;52.516;13.460;2022-12-18T00:08:39;96.13;;;47.17;;
32501;SDS011;18952;52.516;13.460;2022-12-18T00:11:07;94.10;;;43.22;;
32501;SDS011;18952;52.516;13.460;2022-12-18T00:13:36;109.35;;;45.22;;
32501;SDS011;18952;52.516;13.460;2022-12-18T00:16:04;102.97;;;48.75;;
32501;SDS011;18952;52.516;13.460;2022-12-18T00:18:33;117.55;;;49.03;;
32501;SDS011;18952;52.516;13.460;2022-12-18T00:21:01;94.65;;;49.15;;
32501;SDS011;18952;52.516;13.460;2022-12-18T00:23:30;104.93;;;48.90;;
32501;SDS011;18952;52.516;13.460;2022-12-18T00:26:01;100.65;;;47.80;;
32501;SDS011;18952;52.516;13.460;2022-12-18T00:28:29;92.68;;;47.95;;
32501;SDS011;18952;52.516;13.460;2022-12-18T00:31:02;98.88;;;48.35;;
32501;SDS011;18952;52.516;13.460;2022-12-18T00:33:31;94.07;;;50.85;;
32501;SDS011;18952;52.516;13.460;2022-12-18T00:36:02;94.72;;;48.55;;
32501;SDS011;18952;52.516;13.460;2022-12-18T00:38:33;94.82;;;47.75;;
32501;SDS011;18952;52.516;13.460;2022-12-18T00:41:01;84.85;;;45.70;;
32501;SDS011;18952;52.516;13.460;2022-12-18T00:43:28;79.97;;;42.65;;
32501;SDS011;18952;52.516;13.460;2022-12-18T00:45:55;85.80;;;44.88;;
32501;SDS011;18952;52.516;13.460;2022-12-18T00:48:22;84.00;;;45.20;;
32501;SDS011;18952;52.516;13.460;2022-12-18T00:50:49;76.20;;;42.33;;
32501;SDS011;18952;52.516;13.460;2022-12-18T00:53:16;148.32;;;41.67;;
32501;SDS011;18952;52.516;13.460;2022-12-18T00:55:43;77.60;;;41.65;;
32501;SDS011;18952;52.516;13.460;2022-12-18T00:58:11;92.68;;;42.72;;
32501;SDS011;18952;52.516;13.460;2022-12-18T01:00:39;84.82;;;43.75;;
32501;SDS011;18952;52.516;13.460;2022-12-18T01:03:06;90.05;;;46.58;;
32501;SDS011;18952;52.516;13.460;2022-12-18T01:05:33;90.38;;;46.35;;
32501;SDS011;18952;52.516;13.460;2022-12-18T01:07:59;85.25;;;47.10;;
32501;SDS011;18952;52.516;13.460;2022-12-18T01:10:26;88.25;;;46.58;;
32501;SDS011;18952;52.516;13.460;2022-12-18T01:12:53;89.90;;;48.15;;
32501;SDS011;18952;52.516;13.460;2022-12-18T01:15:20;101.55;;;50.38;;
32501;SDS011;18952;52.516;13.460;2022-12-18T01:17:47;93.10;;;47.67;;
32501;SDS011;18952;52.516;13.460;2022-12-18T01:20:13;96.43;;;50.97;;
32501;SDS011;18952;52.516;13.460;2022-12-18T01:22:40;101.15;;;50.28;;
32501;SDS011;18952;52.516;13.460;2022-12-18T01:25:07;99.53;;;49.30;;
32501;SDS011;18952;52.516;13.460;2022-12-18T01:27:34;86.50;;;45.58;;
32501;SDS011;18952;52.516;13.460;2022-12-18T01:30:01;87.75;;;45.53;;
32501;SDS011;18952;52.516;13.460;2022-12-18T01:32:29;77.10;;;43.40;;
32501;SDS011;18952;52.516;13.460;2022-12-18T01:34:57;81.10;;;43.92;;
32501;SDS011;18952;52.516;13.460;2022-12-18T01:37:24;88.53;;;47.45;;
32501;SDS011;18952;52.516;13.460;2022-12-18T01:39:52;96.07;;;48.28;;
32501;SDS011;18952;52.516;13.460;2022-12-18T01:42:19;93.30;;;48.10;;
32501;SDS011;18952;52.516;13.460;2022-12-18T01:47:17;93.60;;;49.75;;
32501;SDS011;18952;52.516;13.460;2022-12-18T01:49:47;95.57;;;50.65;;
32501;SDS011;18952;52.516;13.460;2022-12-18T01:52:14;92.18;;;48.40;;
32501;SDS011;18952;52.516;13.460;2022-12-18T01:54:43;104.47;;;52.22;;
32501;SDS011;18952;52.516;13.460;2022-12-18T01:57:11;113.35;;;56.78;;
32501;SDS011;18952;52.516;13.460;2022-12-18T01:59:37;127.95;;;59.60;;
32501;SDS011;18952;52.516;13.460;2022-12-18T02:02:07;218.10;;;65.30;;
32501;SDS011;18952;52.516;13.460;2022-12-18T02:04:34;159.10;;;68.22;;
32501;SDS011;18952;52.516;13.460;2022-12-18T02:07:03;143.43;;;67.78;;
32501;SDS011;18952;52.516;13.460;2022-12-18T02:09:43;151.98;;;66.97;;
32501;SDS011;18952;52.516;13.460;2022-12-18T02:12:17;156.77;;;65.72;;
32501;SDS011;18952;52.516;13.460;2022-12-18T02:15:10;149.68;;;68.88;;
32501;SDS011;18952;52.516;13.460;2022-12-18T02:17:51;149.27;;;66.47;;
32501;SDS011;18952;52.516;13.460;2022-12-18T02:20:28;168.68;;;67.90;;
32501;SDS011;18952;52.516;13.460;2022-12-18T02:28:21;177.20;;;72.93;;
32501;SDS011;18952;52.516;13.460;2022-12-18T02:30:52;157.07;;;72.15;;
32501;SDS011;18952;52.516;13.460;2022-12-18T02:33:25;151.30;;;71.97;;
32501;SDS011;18952;52.516;13.460;2022-12-18T02:35:55;149.30;;;70.85;;
32501;SDS011;18952;52.516;13.460;2022-12-18T02:38:24;158.35;;;71.80;;
32501;SDS011;18952;52.516;13.460;2022-12-18T02:40:51;159.38;;;73.05;;
32501;SDS011;18952;52.516;13.460;2022-12-18T02:43:20;190.25;;;78.72;;
32501;SDS011;18952;52.516;13.460;2022-12-18T02:45:57;167.55;;;77.43;;
32501;SDS011;18952;52.516;13.460;2022-12-18T02:48:27;165.35;;;75.30;;
32501;SDS011;18952;52.516;13.460;2022-12-18T02:51:03;166.40;;;76.57;;
32501;SDS011;18952;52.516;13.460;2022-12-18T02:53:43;170.32;;;75.85;;
32501;SDS011;18952;52.516;13.460;2022-12-18T02:56:21;160.00;;;74.25;;
32501;SDS011;18952;52.516;13.460;2022-12-18T03:01:29;164.07;;;71.38;;
32501;SDS011;18952;52.516;13.460;2022-12-18T03:06:39;147.13;;;65.97;;
32501;SDS011;18952;52.516;13.460;2022-12-18T03:09:12;139.77;;;65.70;;
32501;SDS011;18952;52.516;13.460;2022-12-18T03:11:46;132.13;;;63.40;;
32501;SDS011;18952;52.516;13.460;2022-12-18T03:14:20;129.10;;;62.10;;
32501;SDS011;18952;52.516;13.460;2022-12-18T03:16:49;135.73;;;64.57;;
32501;SDS011;18952;52.516;13.460;2022-12-18T03:19:21;129.60;;;63.60;;
32501;SDS011;18952;52.516;13.460;2022-12-18T03:21:53;140.32;;;74.72;;
32501;SDS011;18952;52.516;13.460;2022-12-18T03:24:22;122.03;;;59.08;;
32501;SDS011;18952;52.516;13.460;2022-12-18T03:26:53;113.32;;;57.00;;
32501;SDS011;18952;52.516;13.460;2022-12-18T03:29:37;110.18;;;55.42;;
32501;SDS011;18952;52.516;13.460;2022-12-18T03:32:19;105.75;;;52.53;;
32501;SDS011;18952;52.516;13.460;2022-12-18T03:34:55;105.03;;;53.60;;
32501;SDS011;18952;52.516;13.460;2022-12-18T03:37:26;103.18;;;52.38;;
32501;SDS011;18952;52.516;13.460;2022-12-18T03:39:53;105.55;;;52.08;;
32501;SDS011;18952;52.516;13.460;2022-12-18T03:47:25;102.65;;;51.58;;
32501;SDS011;18952;52.516;13.460;2022-12-18T03:50:03;102.82;;;50.95;;
32501;SDS011;18952;52.516;13.460;2022-12-18T03:52:39;99.88;;;50.70;;
32501;SDS011;18952;52.516;13.460;2022-12-18T03:55:12;96.80;;;50.47;;
32501;SDS011;18952;52.516;13.460;2022-12-18T03:57:39;100.68;;;50.53;;
32501;SDS011;18952;52.516;13.460;2022-12-18T04:00:09;100.07;;;50.00;;
32501;SDS011;18952;52.516;13.460;2022-12-18T04:02:46;94.07;;;48.72;;
32501;SDS011;18952;52.516;13.460;2022-12-18T04:05:19;99.80;;;50.03;;
32501;SDS011;18952;52.516;13.460;2022-12-18T04:07:47;109.32;;;51.47;;
32501;SDS011;18952;52.516;13.460;2022-12-18T04:10:16;95.95;;;49.10;;
32501;SDS011;18952;52.516;13.460;2022-12-18T04:12:43;96.07;;;48.47;;
32501;SDS011;18952;52.516;13.460;2022-12-18T04:15:10;97.28;;;49.10;;
32501;SDS011;18952;52.516;13.460;2022-12-18T04:17:38;100.13;;;48.08;;
32501;SDS011;18952;52.516;13.460;2022-12-18T04:20:09;91.38;;;47.03;;
32501;SDS011;18952;52.516;13.460;2022-12-18T04:22:36;94.40;;;46.50;;
32501;SDS011;18952;52.516;13.460;2022-12-18T04:25:03;92.47;;;48.13;;
32501;SDS011;18952;52.516;13.460;2022-12-18T04:27:30;97.97;;;47.97;;
32501;SDS011;18952;52.516;13.460;2022-12-18T04:29:57;93.40;;;47.92;;
32501;SDS011;18952;52.516;13.460;2022-12-18T04:32:23;92.25;;;45.90;;
32501;SDS011;18952;52.516;13.460;2022-12-18T04:34:50;100.15;;;47.47;;
32501;SDS011;18952;52.516;13.460;2022-12-18T04:37:17;92.15;;;45.30;;
32501;SDS011;18952;52.516;13.460;2022-12-18T04:39:43;93.68;;;47.53;;
32501;SDS011;18952;52.516;13.460;2022-12-18T04:42:10;89.93;;;45.63;;
32501;SDS011;18952;52.516;13.460;2022-12-18T04:44:37;91.03;;;47.30;;
32501;SDS011;18952;52.516;13.460;2022-12-18T04:47:03;92.03;;;45.83;;
32501;SDS011;18952;52.516;13.460;2022-12-18T04:49:30;87.30;;;45.42;;
32501;SDS011;18952;52.516;13.460;2022-12-18T04:51:57;90.35;;;44.33;;
32501;SDS011;18952;52.516;13.460;2022-12-18T04:54:24;86.95;;;45.65;;
32501;SDS011;18952;52.516;13.460;2022-12-18T04:56:50;87.65;;;43.65;;
32501;SDS011;18952;52.516;13.460;2022-12-18T04:59:17;86.18;;;45.15;;
32501;SDS011;18952;52.516;13.460;2022-12-18T05:01:44;87.20;;;45.75;;
32501;SDS011;18952;52.516;13.460;2022-12-18T05:04:11;90.20;;;44.72;;
32501;SDS011;18952;52.516;13.460;2022-12-18T05:06:37;80.05;;;42.38;;
32501;SDS011;18952;52.516;13.460;2022-12-18T05:09:04;89.35;;;44.50;;
32501;SDS011;18952;52.516;13.460;2022-12-18T05:11:31;91.68;;;45.60;;
32501;SDS011;18952;52.516;13.460;2022-12-18T05:13:57;89.90;;;46.45;;
32501;SDS011;18952;52.516;13.460;2022-12-18T05:16:24;93.90;;;45.85;;
32501;SDS011;18952;52.516;13.460;2022-12-18T05:18:51;112.88;;;48.00;;
32501;SDS011;18952;52.516;13.460;2022-12-18T05:21:18;120.43;;;47.67;;
32501;SDS011;18952;52.516;13.460;2022-12-18T05:23:44;100.45;;;48.38;;
32501;SDS011;18952;52.516;13.460;2022-12-18T05:26:14;100.85;;;48.75;;
32501;SDS011;18952;52.516;13.460;2022-12-18T05:28:42;105.93;;;47.95;;
32501;SDS011;18952;52.516;13.460;2022-12-18T05:31:09;108.53;;;48.78;;
32501;SDS011;18952;52.516;13.460;2022-12-18T05:33:36;110.70;;;51.17;;
32501;SDS011;18952;52.516;13.460;2022-12-18T05:36:05;113.70;;;49.85;;
32501;SDS011;18952;52.516;13.460;2022-12-18T05:38:34;108.30;;;49.38;;
32501;SDS011;18952;52.516;13.460;2022-12-18T05:41:05;110.30;;;51.25;;
32501;SDS011;18952;52.516;13.460;2022-12-18T05:43:34;117.93;;;51.55;;
32501;SDS011;18952;52.516;13.460;2022-12-18T05:46:03;120.93;;;54.83;;
32501;SDS011;18952;52.516;13.460;2022-12-18T05:48:32;119.53;;;53.13;;
32501;SDS011;18952;52.516;13.460;2022-12-18T05:51:06;121.90;;;54.00;;
32501;SDS011;18952;52.516;13.460;2022-12-18T05:53:34;120.30;;;53.40;;
32501;SDS011;18952;52.516;13.460;2022-12-18T05:56:03;130.77;;;56.92;;
32501;SDS011;18952;52.516;13.460;2022-12-18T05:58:31;121.65;;;55.15;;
32501;SDS011;18952;52.516;13.460;2022-12-18T06:01:05;124.65;;;54.90;;
32501;SDS011;18952;52.516;13.460;2022-12-18T06:03:43;125.63;;;56.60;;
32501;SDS011;18952;52.516;13.460;2022-12-18T06:06:21;132.23;;;58.75;;
32501;SDS011;18952;52.516;13.460;2022-12-18T06:08:50;145.95;;;59.63;;
32501;SDS011;18952;52.516;13.460;2022-12-18T06:11:18;130.77;;;59.10;;
32501;SDS011;18952;52.516;13.460;2022-12-18T06:13:49;129.05;;;57.90;;
32501;SDS011;18952;52.516;13.460;2022-12-18T06:16:23;128.52;;;57.45;;
32501;SDS011;18952;52.516;13.460;2022-12-18T06:18:50;137.65;;;59.35;;
32501;SDS011;18952;52.516;13.460;2022-12-18T06:21:17;132.63;;;58.45;;
32501;SDS011;18952;52.516;13.460;2022-12-18T06:23:44;132.40;;;58.88;;
32501;SDS011;18952;52.516;13.460;2022-12-18T06:26:11;120.50;;;58.88;;
32501;SDS011;18952;52.516;13.460;2022-12-18T06:28:38;131.88;;;59.95;;
32501;SDS011;18952;52.516;13.460;2022-12-18T06:31:06;132.82;;;60.25;;
32501;SDS011;18952;52.516;13.460;2022-12-18T06:33:33;124.60;;;59.42;;
32501;SDS011;18952;52.516;13.460;2022-12-18T06:36:08;123.25;;;58.13;;
32501;SDS011;18952;52.516;13.460;2022-12-18T06:38:39;119.82;;;55.03;;
32501;SDS011;18952;52.516;13.460;2022-12-18T06:41:08;112.75;;;54.67;;
32501;SDS011;18952;52.516;13.460;2022-12-18T06:43:36;110.03;;;53.80;;
32501;SDS011;18952;52.516;13.460;2022-12-18T06:46:04;106.63;;;53.05;;
32501;SDS011;18952;52.516;13.460;2022-12-18T06:48:31;110.95;;;53.90;;
32501;SDS011;18952;52.516;13.460;2022-12-18T06:50:59;111.00;;;53.90;;
32501;SDS011;18952;52.516;13.460;2022-12-18T06:53:26;104.38;;;51.42;;
32501;SDS011;18952;52.516;13.460;2022-12-18T06:55:58;112.80;;;52.92;;
32501;SDS011;18952;52.516;13.460;2022-12-18T06:58:34;122.93;;;54.90;;
32501;SDS011;18952;52.516;13.460;2022-12-18T07:01:02;105.25;;;51.75;;
32501;SDS011;18952;52.516;13.460;2022-12-18T07:03:30;111.97;;;52.67;;
32501;SDS011;18952;52.516;13.460;2022-12-18T07:05:57;112.60;;;54.05;;
32501;SDS011;18952;52.516;13.460;2022-12-18T07:08:24;103.45;;;51.42;;
32501;SDS011;18952;52.516;13.460;2022-12-18T07:10:51;105.65;;;52.90;;
32501;SDS011;18952;52.516;13.460;2022-12-18T07:13:21;104.72;;;54.25;;
32501;SDS011;18952;52.516;13.460;2022-12-18T07:15:48;105.97;;;52.25;;
32501;SDS011;18952;52.516;13.460;2022-12-18T07:18:15;108.05;;;52.90;;
32501;SDS011;18952;52.516;13.460;2022-12-18T07:20:42;108.15;;;53.25;;
32501;SDS011;18952;52.516;13.460;2022-12-18T07:23:09;114.80;;;54.78;;
32501;SDS011;18952;52.516;13.460;2022-12-18T07:25:36;107.95;;;54.47;;
32501;SDS011;18952;52.516;13.460;2022-12-18T07:28:03;113.35;;;56.20;;
32501;SDS011;18952;52.516;13.460;2022-12-18T07:30:30;115.10;;;54.58;;
32501;SDS011;18952;52.516;13.460;2022-12-18T07:32:57;111.60;;;54.15;;
32501;SDS011;18952;52.516;13.460;2022-12-18T07:35:24;108.70;;;54.20;;
32501;SDS011;18952;52.516;13.460;2022-12-18T07:37:51;102.43;;;52.78;;
32501;SDS011;18952;52.516;13.460;2022-12-18T07:40:17;103.93;;;53.67;;
32501;SDS011;18952;52.516;13.460;2022-12-18T07:42:44;112.03;;;54.17;;
32501;SDS011;18952;52.516;13.460;2022-12-18T07:45:11;103.82;;;53.05;;
32501;SDS011;18952;52.516;13.460;2022-12-18T07:47:37;107.18;;;53.55;;
32501;SDS011;18952;52.516;13.460;2022-12-18T07:50:04;111.18;;;54.95;;
32501;SDS011;18952;52.516;13.460;2022-12-18T07:52:31;107.60;;;54.80;;
32501;SDS011;18952;52.516;13.460;2022-12-18T07:54:59;109.18;;;55.15;;
32501;SDS011;18952;52.516;13.460;2022-12-18T07:57:25;113.25;;;56.35;;
32501;SDS011;18952;52.516;13.460;2022-12-18T08:00:12;109.78;;;53.63;;
32501;SDS011;18952;52.516;13.460;2022-12-18T08:02:40;102.30;;;53.83;;
32501;SDS011;18952;52.516;13.460;2022-12-18T08:05:07;101.72;;;54.00;;
32501;SDS011;18952;52.516;13.460;2022-12-18T08:07:34;98.82;;;51.88;;
32501;SDS011;18952;52.516;13.460;2022-12-18T08:10:01;101.55;;;51.90;;
32501;SDS011;18952;52.516;13.460;2022-12-18T08:12:29;88.75;;;48.65;;
32501;SDS011;18952;52.516;13.460;2022-12-18T08:14:55;91.57;;;49.67;;
32501;SDS011;18952;52.516;13.460;2022-12-18T08:17:22;84.30;;;47.97;;
32501;SDS011;18952;52.516;13.460;2022-12-18T08:19:49;92.28;;;47.97;;
32501;SDS011;18952;52.516;13.460;2022-12-18T08:22:16;84.35;;;47.10;;
32501;SDS011;18952;52.516;13.460;2022-12-18T08:24:42;85.88;;;47.05;;
32501;SDS011;18952;52.516;13.460;2022-12-18T08:27:09;87.68;;;47.63;;
32501;SDS011;18952;52.516;13.460;2022-12-18T08:29:54;86.15;;;45.70;;
32501;SDS011;18952;52.516;13.460;2022-12-18T08:32:21;87.57;;;46.72;;
32501;SDS011;18952;52.516;13.460;2022-12-18T08:34:47;86.03;;;46.67;;
32501;SDS011;18952;52.516;13.460;2022-12-18T08:37:14;81.25;;;45.42;;
32501;SDS011;18952;52.516;13.460;2022-12-18T08:39:41;85.25;;;45.95;;
32501;SDS011;18952;52.516;13.460;2022-12-18T08:42:08;81.60;;;45.58;;
32501;SDS011;18952;52.516;13.460;2022-12-18T08:44:35;84.30;;;45.92;;
32501;SDS011;18952;52.516;13.460;2022-12-18T08:47:02;82.82;;;47.55;;
32501;SDS011;18952;52.516;13.460;2022-12-18T08:49:29;84.22;;;48.08;;
32501;SDS011;18952;52.516;13.460;2022-12-18T08:51:56;88.18;;;48.30;;
32501;SDS011;18952;52.516;13.460;2022-12-18T08:54:24;78.85;;;45.20;;
32501;SDS011;18952;52.516;13.460;2022-12-18T08:56:51;87.13;;;46.67;;
32501;SDS011;18952;52.516;13.460;2022-12-18T08:59:18;86.05;;;45.47;;
32501;SDS011;18952;52.516;13.460;2022-12-18T09:01:46;82.43;;;46.50;;
32501;SDS011;18952;52.516;13.460;2022-12-18T09:04:13;84.30;;;46.83;;
32501;SDS011;18952;52.516;13.460;2022-12-18T09:06:40;81.65;;;45.28;;
32501;SDS011;18952;52.516;13.460;2022-12-18T09:09:07;78.97;;;44.10;;
32501;SDS011;18952;52.516;13.460;2022-12-18T09:11:35;80.13;;;46.03;;
32501;SDS011;18952;52.516;13.460;2022-12-18T09:14:03;83.82;;;46.05;;
32501;SDS011;18952;52.516;13.460;2022-12-18T09:16:30;77.10;;;44.28;;
32501;SDS011;18952;52.516;13.460;2022-12-18T09:18:58;84.95;;;47.17;;
32501;SDS011;18952;52.516;13.460;2022-12-18T09:21:27;81.00;;;45.05;;
32501;SDS011;18952;52.516;13.460;2022-12-18T09:23:56;80.10;;;43.78;;
32501;SDS011;18952;52.516;13.460;2022-12-18T09:26:23;81.70;;;45.58;;
32501;SDS011;18952;52.516;13.460;2022-12-18T09:28:51;83.43;;;45.50;;
32501;SDS011;18952;52.516;13.460;2022-12-18T09:31:20;85.38;;;46.53;;
32501;SDS011;18952;52.516;13.460;2022-12-18T09:33:48;83.30;;;45.00;;
32501;SDS011;18952;52.516;13.460;2022-12-18T09:36:16;81.20;;;46.50;;
32501;SDS011;18952;52.516;13.460;2022-12-18T09:38:43;82.07;;;46.08;;
32501;SDS011;18952;52.516;13.460;2022-12-18T09:43:53;78.47;;;45.67;;
32501;SDS011;18952;52.516;13.460;2022-12-18T09:46:28;89.93;;;47.28;;
32501;SDS011;18952;52.516;13.460;2022-12-18T09:49:00;88.90;;;47.67;;
32501;SDS011;18952;52.516;13.460;2022-12-18T09:51:30;87.07;;;47.30;;
32501;SDS011;18952;52.516;13.460;2022-12-18T09:54:03;103.75;;;54.97;;
32501;SDS011;18952;52.516;13.460;2022-12-18T09:56:35;91.43;;;49.50;;
32501;SDS011;18952;52.516;13.460;2022-12-18T09:59:05;96.95;;;49.67;;
32501;SDS011;18952;52.516;13.460;2022-12-18T10:01:41;86.63;;;48.25;;
32501;SDS011;18952;52.516;13.460;2022-12-18T10:04:11;101.32;;;50.08;;
32501;SDS011;18952;52.516;13.460;2022-12-18T10:06:50;91.72;;;50.25;;
32501;SDS011;18952;52.516;13.460;2022-12-18T10:09:39;95.60;;;49.92;;
32501;SDS011;18952;52.516;13.460;2022-12-18T10:15:32;93.80;;;49.38;;
32501;SDS011;18952;52.516;13.460;2022-12-18T10:17:42;92.05;;;48.92;;
32501;SDS011;18952;52.516;13.460;2022-12-18T10:20:24;91.82;;;48.92;;
32501;SDS011;18952;52.516;13.460;2022-12-18T10:28:29;88.78;;;47.72;;
32501;SDS011;18952;52.516;13.460;2022-12-18T10:30:57;91.50;;;48.90;;
32501;SDS011;18952;52.516;13.460;2022-12-18T10:33:28;97.15;;;49.67;;
32501;SDS011;18952;52.516;13.460;2022-12-18T10:35:56;100.57;;;50.97;;
32501;SDS011;18952;52.516;13.460;2022-12-18T10:38:30;95.47;;;50.65;;
32501;SDS011;18952;52.516;13.460;2022-12-18T10:41:05;106.15;;;53.17;;
32501;SDS011;18952;52.516;13.460;2022-12-18T10:47:02;104.95;;;52.40;;
32501;SDS011;18952;52.516;13.460;2022-12-18T10:49:36;106.75;;;52.88;;
32501;SDS011;18952;52.516;13.460;2022-12-18T10:52:15;103.28;;;51.28;;
32501;SDS011;18952;52.516;13.460;2022-12-18T10:59:58;104.03;;;51.50;;
32501;SDS011;18952;52.516;13.460;2022-12-18T11:05:01;96.65;;;50.67;;
32501;SDS011;18952;52.516;13.460;2022-12-18T11:07:46;102.65;;;50.50;;
32501;SDS011;18952;52.516;13.460;2022-12-18T11:10:16;89.82;;;49.08;;
32501;SDS011;18952;52.516;13.460;2022-12-18T11:12:44;92.20;;;48.03;;
32501;SDS011;18952;52.516;13.460;2022-12-18T11:15:19;92.82;;;49.20;;
32501;SDS011;18952;52.516;13.460;2022-12-18T11:17:49;96.85;;;48.83;;
32501;SDS011;18952;52.516;13.460;2022-12-18T11:20:23;89.90;;;47.83;;
32501;SDS011;18952;52.516;13.460;2022-12-18T11:22:59;85.80;;;46.72;;
32501;SDS011;18952;52.516;13.460;2022-12-18T11:25:29;85.57;;;47.53;;
32501;SDS011;18952;52.516;13.460;2022-12-18T11:30:30;82.82;;;46.75;;
32501;SDS011;18952;52.516;13.460;2022-12-18T11:33:09;83.97;;;47.25;;
32501;SDS011;18952;52.516;13.460;2022-12-18T11:38:21;79.95;;;44.53;;
32501;SDS011;18952;52.516;13.460;2022-12-18T11:41:05;77.30;;;43.58;;
32501;SDS011;18952;52.516;13.460;2022-12-18T11:43:55;74.85;;;43.22;;
32501;SDS011;18952;52.516;13.460;2022-12-18T11:51:41;82.22;;;43.95;;
32501;SDS011;18952;52.516;13.460;2022-12-18T11:54:26;80.05;;;44.20;;
32501;SDS011;18952;52.516;13.460;2022-12-18T11:59:33;82.60;;;45.63;;
32501;SDS011;18952;52.516;13.460;2022-12-18T12:07:45;76.35;;;40.90;;
32501;SDS011;18952;52.516;13.460;2022-12-18T12:10:42;73.95;;;41.63;;
32501;SDS011;18952;52.516;13.460;2022-12-18T12:13:23;75.70;;;40.20;;
32501;SDS011;18952;52.516;13.460;2022-12-18T12:16:13;66.70;;;39.45;;
32501;SDS011;18952;52.516;13.460;2022-12-18T12:21:37;71.75;;;40.67;;
32501;SDS011;18952;52.516;13.460;2022-12-18T12:26:48;77.05;;;42.05;;
32501;SDS011;18952;52.516;13.460;2022-12-18T12:40:07;71.25;;;39.55;;
32501;SDS011;18952;52.516;13.460;2022-12-18T12:43:09;64.68;;;38.33;;
32501;SDS011;18952;52.516;13.460;2022-12-18T12:49:04;69.90;;;39.45;;
32501;SDS011;18952;52.516;13.460;2022-12-18T12:51:20;63.50;;;37.55;;
32501;SDS011;18952;52.516;13.460;2022-12-18T12:53:53;69.15;;;39.53;;
32501;SDS011;18952;52.516;13.460;2022-12-18T12:56:22;74.30;;;41.13;;
32501;SDS011;18952;52.516;13.460;2022-12-18T13:05:11;73.32;;;40.88;;
32501;SDS011;18952;52.516;13.460;2022-12-18T13:07:49;70.43;;;39.15;;
32501;SDS011;18952;52.516;13.460;2022-12-18T13:10:26;69.45;;;39.40;;
32501;SDS011;18952;52.516;13.460;2022-12-18T13:12:59;67.32;;;39.45;;
32501;SDS011;18952;52.516;13.460;2022-12-18T13:15:49;70.35;;;40.63;;
32501;SDS011;18952;52.516;13.460;2022-12-18T13:18:33;73.95;;;40.20;;
32501;SDS011;18952;52.516;13.460;2022-12-18T13:23:31;71.82;;;42.08;;
32501;SDS011;18952;52.516;13.460;2022-12-18T13:33:46;72.82;;;42.22;;
32501;SDS011;18952;52.516;13.460;2022-12-18T13:36:33;67.05;;;39.83;;
32501;SDS011;18952;52.516;13.460;2022-12-18T13:39:11;67.28;;;40.22;;
32501;SDS011;18952;52.516;13.460;2022-12-18T13:44:36;67.88;;;41.72;;
32501;SDS011;18952;52.516;13.460;2022-12-18T13:49:59;71.72;;;43.50;;
32501;SDS011;18952;52.516;13.460;2022-12-18T13:52:33;75.15;;;45.92;;
32501;SDS011;18952;52.516;13.460;2022-12-18T13:55:04;66.10;;;42.42;;
32501;SDS011;18952;52.516;13.460;2022-12-18T13:57:37;69.45;;;43.42;;
32501;SDS011;18952;52.516;13.460;2022-12-18T14:02:54;74.32;;;47.00;;
32501;SDS011;18952;52.516;13.460;2022-12-18T14:07:49;73.95;;;47.67;;
32501;SDS011;18952;52.516;13.460;2022-12-18T14:10:18;74.00;;;48.08;;
32501;SDS011;18952;52.516;13.460;2022-12-18T14:13:06;71.40;;;46.78;;
32501;SDS011;18952;52.516;13.460;2022-12-18T14:15:39;74.50;;;47.85;;
32501;SDS011;18952;52.516;13.460;2022-12-18T14:20:46;71.50;;;46.65;;
32501;SDS011;18952;52.516;13.460;2022-12-18T14:23:32;68.82;;;46.05;;
32501;SDS011;18952;52.516;13.460;2022-12-18T14:26:02;68.25;;;44.38;;
32501;SDS011;18952;52.516;13.460;2022-12-18T14:28:45;66.50;;;45.05;;
32501;SDS011;18952;52.516;13.460;2022-12-18T14:31:21;70.97;;;44.67;;
32501;SDS011;18952;52.516;13.460;2022-12-18T14:33:50;70.30;;;44.17;;
32501;SDS011;18952;52.516;13.460;2022-12-18T14:36:18;61.53;;;43.03;;
32501;SDS011;18952;52.516;13.460;2022-12-18T14:38:50;71.32;;;43.50;;
32501;SDS011;18952;52.516;13.460;2022-12-18T14:41:18;64.85;;;42.13;;
32501;SDS011;18952;52.516;13.460;2022-12-18T14:43:47;57.83;;;39.70;;
32501;SDS011;18952;52.516;13.460;2022-12-18T14:49:24;59.42;;;38.10;;
32501;SDS011;18952;52.516;13.460;2022-12-18T14:51:59;57.40;;;37.80;;
32501;SDS011;18952;52.516;13.460;2022-12-18T14:54:32;56.40;;;38.47;;
32501;SDS011;18952;52.516;13.460;2022-12-18T14:57:05;57.15;;;37.90;;
32501;SDS011;18952;52.516;13.460;2022-12-18T15:00:15;61.30;;;39.58;;
32501;SDS011;18952;52.516;13.460;2022-12-18T15:02:45;62.10;;;41.50;;
32501;SDS011;18952;52.516;13.460;2022-12-18T15:07:55;65.63;;;42.13;;
32501;SDS011;18952;52.516;13.460;2022-12-18T15:10:27;61.70;;;41.42;;
32501;SDS011;18952;52.516;13.460;2022-12-18T15:15:57;63.85;;;43.08;;
32501;SDS011;18952;52.516;13.460;2022-12-18T15:18:26;63.28;;;41.60;;
32501;SDS011;18952;52.516;13.460;2022-12-18T15:21:08;67.63;;;44.47;;
32501;SDS011;18952;52.516;13.460;2022-12-18T15:26:11;61.35;;;41.83;;
32501;SDS011;18952;52.516;13.460;2022-12-18T15:28:44;61.00;;;40.65;;
32501;SDS011;18952;52.516;13.460;2022-12-18T15:34:29;56.08;;;38.03;;
32501;SDS011;18952;52.516;13.460;2022-12-18T15:36:44;56.33;;;37.50;;
32501;SDS011;18952;52.516;13.460;2022-12-18T15:39:11;51.08;;;34.55;;
32501;SDS011;18952;52.516;13.460;2022-12-18T15:41:38;51.67;;;34.90;;
32501;SDS011;18952;52.516;13.460;2022-12-18T15:44:21;49.80;;;34.85;;
32501;SDS011;18952;52.516;13.460;2022-12-18T15:46:49;52.85;;;35.78;;
32501;SDS011;18952;52.516;13.460;2022-12-18T15:49:16;50.53;;;35.58;;
32501;SDS011;18952;52.516;13.460;2022-12-18T15:51:43;52.85;;;35.22;;
32501;SDS011;18952;52.516;13.460;2022-12-18T15:54:11;50.22;;;35.00;;
32501;SDS011;18952;52.516;13.460;2022-12-18T15:56:40;48.38;;;35.28;;
32501;SDS011;18952;52.516;13.460;2022-12-18T15:59:12;51.10;;;34.78;;
32501;SDS011;18952;52.516;13.460;2022-12-18T16:01:41;55.72;;;37.47;;
32501;SDS011;18952;52.516;13.460;2022-12-18T16:04:11;53.55;;;36.53;;
32501;SDS011;18952;52.516;13.460;2022-12-18T16:06:39;56.70;;;36.70;;
32501;SDS011;18952;52.516;13.460;2022-12-18T16:09:26;59.50;;;37.67;;
32501;SDS011;18952;52.516;13.460;2022-12-18T16:11:53;50.35;;;35.95;;
32501;SDS011;18952;52.516;13.460;2022-12-18T16:14:21;50.13;;;35.55;;
32501;SDS011;18952;52.516;13.460;2022-12-18T16:16:51;55.47;;;35.03;;
32501;SDS011;18952;52.516;13.460;2022-12-18T16:19:19;51.33;;;36.22;;
32501;SDS011;18952;52.516;13.460;2022-12-18T16:21:47;50.38;;;36.20;;
32501;SDS011;18952;52.516;13.460;2022-12-18T16:24:16;53.72;;;36.88;;
32501;SDS011;18952;52.516;13.460;2022-12-18T16:26:47;53.95;;;38.70;;